Andover, Massachusetts
Current Conditions -  °F | °C
As of 5:29 AM on Sunday 21 Dec 2014 (Local Time) from KLWM Reporting Station
Overcast Overcast  
Wind Chill: 19°   Ceiling: 1300
Heat Index: 27°   Visibility: 10mi
Dew Point: 21°   Wind: 7mph
Humidity: 78%   Direction: 360°N
Pressure: 30.33"   Gusts: NA
Location:  42.65°N, 71.14°W
Report Text: KLWM 211029Z AUTO 36006KT 10SM OVC013 M03/M06 A3033 RMK AO2 T10281061
Loading
Personal Weather Stations






























Interactive Weather Map New forecast layout! Learn more

10-Day Weather Forecast

Advertisements
Track Severe Weather on mobile